Time;durP1;ratioP1;P1;durP2;ratioP2;P2;SDS_P1;SDS_P2;PMS_P1;PMS_P2;Temp;Humidity;BMP_temperature;BMP_pressure;BME280_temperature;BME280_humidity;BME280_pressure;Samples;Min_cycle;Max_cycle;Signal;HPM_P1;HPM_P2
2024/01/03 00:00:51;;;;;;;0.50;0.50;;;;;;;;;;10327739;28;20226;-70
2024/01/03 00:05:51;;;;;;;0.50;0.50;;;;;;;;;;10328408;28;20213;-69
2024/01/03 00:10:53;;;;;;;0.47;0.47;;;;;;;;;;10328296;28;20242;-70
2024/01/03 00:15:59;;;;;;;0.50;0.50;;;;;;;;;;10328001;28;20561;-69
2024/01/03 00:20:59;;;;;;;0.40;0.40;;;;;;;;;;10327176;28;20230;-69
2024/01/03 00:25:59;;;;;;;0.53;0.53;;;;;;;;;;10327746;28;20190;-69
2024/01/03 00:31:00;;;;;;;0.50;0.50;;;;;;;;;;10327451;28;20229;-69
2024/01/03 00:36:00;;;;;;;0.53;0.53;;;;;;;;;;10327754;28;20259;-70
2024/01/03 00:41:01;;;;;;;0.50;0.50;;;;;;;;;;10326476;28;20256;-70
2024/01/03 00:46:01;;;;;;;0.50;0.50;;;;;;;;;;10327556;28;20186;-70
2024/01/03 00:51:01;;;;;;;1.70;0.60;;;;;;;;;;10326087;28;20233;-69
2024/01/03 00:56:02;;;;;;;0.70;0.70;;;;;;;;;;10340324;28;20532;-69
2024/01/03 01:01:02;;;;;;;0.50;0.50;;;;;;;;;;10340391;28;20521;-69
2024/01/03 01:06:03;;;;;;;1.40;0.50;;;;;;;;;;10340362;28;20208;-69
2024/01/03 01:11:03;;;;;;;0.60;0.60;;;;;;;;;;10340393;28;20480;-68
2024/01/03 01:16:04;;;;;;;0.60;0.60;;;;;;;;;;10339364;28;20185;-68
2024/01/03 01:21:04;;;;;;;0.60;0.60;;;;;;;;;;10340041;28;20703;-69
2024/01/03 01:26:04;;;;;;;1.70;0.57;;;;;;;;;;10339919;28;20197;-69
2024/01/03 01:31:04;;;;;;;2.43;0.67;;;;;;;;;;10339463;28;20230;-69
2024/01/03 01:36:05;;;;;;;0.60;0.60;;;;;;;;;;10339118;28;20185;-70
2024/01/03 01:41:06;;;;;;;0.60;0.60;;;;;;;;;;10338144;28;20224;-69
2024/01/03 01:46:07;;;;;;;0.40;0.40;;;;;;;;;;10338388;28;20261;-70
2024/01/03 01:51:08;;;;;;;0.50;0.50;;;;;;;;;;10339573;28;20225;-70
2024/01/03 01:56:10;;;;;;;2.03;0.60;;;;;;;;;;10334918;28;20194;-69
2024/01/03 02:01:10;;;;;;;0.60;0.60;;;;;;;;;;10337647;28;20226;-69
2024/01/03 02:06:10;;;;;;;0.50;0.50;;;;;;;;;;10332454;28;20182;-69
2024/01/03 02:11:11;;;;;;;0.50;0.50;;;;;;;;;;10332700;28;20264;-70
2024/01/03 02:16:11;;;;;;;0.70;0.70;;;;;;;;;;10332212;28;20186;-69
2024/01/03 02:21:13;;;;;;;0.60;0.60;;;;;;;;;;10332537;28;20284;-69
2024/01/03 02:26:13;;;;;;;0.60;0.60;;;;;;;;;;10332094;28;20240;-69
2024/01/03 02:31:13;;;;;;;0.60;0.60;;;;;;;;;;10331364;28;20202;-69
2024/01/03 02:36:13;;;;;;;0.50;0.50;;;;;;;;;;10331802;28;20696;-69
2024/01/03 02:41:14;;;;;;;1.33;0.70;;;;;;;;;;10331550;28;20218;-70
2024/01/03 02:46:17;;;;;;;0.60;0.60;;;;;;;;;;10331698;28;20190;-70
2024/01/03 02:51:18;;;;;;;0.60;0.60;;;;;;;;;;10330618;28;20233;-70
2024/01/03 02:56:18;;;;;;;2.83;0.63;;;;;;;;;;10331259;28;20990;-69
2024/01/03 03:01:18;;;;;;;0.60;0.60;;;;;;;;;;10332303;28;20252;-70
2024/01/03 03:06:18;;;;;;;0.63;0.63;;;;;;;;;;10330886;28;20186;-69
2024/01/03 03:11:19;;;;;;;0.60;0.60;;;;;;;;;;10329633;28;20604;-70
2024/01/03 03:16:19;;;;;;;0.60;0.60;;;;;;;;;;10330399;28;20213;-70
2024/01/03 03:21:19;;;;;;;0.60;0.60;;;;;;;;;;10329981;28;20968;-69
2024/01/03 03:26:19;;;;;;;0.60;0.60;;;;;;;;;;10330106;28;20610;-69
2024/01/03 03:31:20;;;;;;;1.17;0.67;;;;;;;;;;10328980;28;20213;-69
2024/01/03 03:36:21;;;;;;;0.73;0.73;;;;;;;;;;10329408;28;20198;-70
2024/01/03 03:41:22;;;;;;;2.23;0.63;;;;;;;;;;10329472;28;20264;-70
2024/01/03 03:46:22;;;;;;;1.00;0.80;;;;;;;;;;10329191;28;20190;-70
2024/01/03 03:51:22;;;;;;;0.70;0.70;;;;;;;;;;10328431;28;20213;-70
2024/01/03 03:56:24;;;;;;;0.63;0.60;;;;;;;;;;10328721;28;20736;-70
2024/01/03 04:01:24;;;;;;;0.60;0.60;;;;;;;;;;10328378;28;20624;-70
2024/01/03 04:06:24;;;;;;;0.60;0.60;;;;;;;;;;10327940;28;20212;-71
2024/01/03 04:11:24;;;;;;;1.03;0.83;;;;;;;;;;10328084;28;20268;-70
2024/01/03 04:16:25;;;;;;;1.23;0.77;;;;;;;;;;10328370;28;20990;-70
2024/01/03 04:21:25;;;;;;;1.63;1.03;;;;;;;;;;10327732;28;20225;-70
2024/01/03 04:26:26;;;;;;;13.50;7.17;;;;;;;;;;10326744;28;20256;-70
2024/01/03 04:31:26;;;;;;;1.77;0.77;;;;;;;;;;10327629;28;20317;-70
2024/01/03 04:36:26;;;;;;;0.73;0.70;;;;;;;;;;10327689;28;20190;-70
2024/01/03 04:41:26;;;;;;;2.47;1.37;;;;;;;;;;10327255;28;20229;-70
2024/01/03 04:46:26;;;;;;;0.70;0.70;;;;;;;;;;10326930;28;20197;-70
2024/01/03 04:51:27;;;;;;;0.80;0.70;;;;;;;;;;10326842;28;20503;-70
2024/01/03 04:56:29;;;;;;;0.60;0.60;;;;;;;;;;10327033;28;20208;-70
2024/01/03 05:01:29;;;;;;;1.03;0.70;;;;;;;;;;10326852;28;20264;-69
2024/01/03 05:06:29;;;;;;;0.63;0.63;;;;;;;;;;10325712;28;20545;-69
2024/01/03 05:11:30;;;;;;;3.87;0.73;;;;;;;;;;10326801;28;20320;-69
2024/01/03 05:16:30;;;;;;;0.50;0.50;;;;;;;;;;10326958;28;20920;-70
2024/01/03 05:21:31;;;;;;;1.97;0.70;;;;;;;;;;10326699;28;20252;-69
2024/01/03 05:26:31;;;;;;;0.60;0.60;;;;;;;;;;10325788;28;20198;-69
2024/01/03 05:31:31;;;;;;;0.83;0.83;;;;;;;;;;10326565;28;20251;-69
2024/01/03 05:36:31;;;;;;;1.57;0.60;;;;;;;;;;10326721;28;20661;-69
2024/01/03 05:41:32;;;;;;;0.70;0.70;;;;;;;;;;10330246;28;20214;-69
2024/01/03 05:46:32;;;;;;;0.60;0.60;;;;;;;;;;10334194;28;20201;-69
2024/01/03 05:51:32;;;;;;;0.50;0.50;;;;;;;;;;10332513;28;20850;-69
2024/01/03 05:56:32;;;;;;;0.73;0.60;;;;;;;;;;10333537;28;20248;-69
2024/01/03 06:01:32;;;;;;;0.90;0.60;;;;;;;;;;10331128;28;20312;-69
2024/01/03 06:06:33;;;;;;;1.97;0.80;;;;;;;;;;10333224;28;20575;-68
2024/01/03 06:11:33;;;;;;;1.53;0.80;;;;;;;;;;10332967;28;20784;-69
2024/01/03 06:16:33;;;;;;;0.60;0.60;;;;;;;;;;10332664;28;20202;-70
2024/01/03 06:21:33;;;;;;;1.13;0.70;;;;;;;;;;10331669;28;20217;-69
2024/01/03 06:26:34;;;;;;;0.87;0.73;;;;;;;;;;10332339;28;20244;-69
2024/01/03 06:31:34;;;;;;;1.37;0.80;;;;;;;;;;10332200;28;20217;-69
2024/01/03 06:36:34;;;;;;;2.33;1.87;;;;;;;;;;10330885;28;20209;-69
2024/01/03 06:41:34;;;;;;;1.83;0.90;;;;;;;;;;10330647;28;20484;-70
2024/01/03 06:46:34;;;;;;;6.37;3.23;;;;;;;;;;10331962;28;20213;-69
2024/01/03 06:51:35;;;;;;;3.40;1.80;;;;;;;;;;10330767;28;20564;-69
2024/01/03 06:56:35;;;;;;;0.90;0.90;;;;;;;;;;10331125;28;20190;-70
2024/01/03 07:01:35;;;;;;;5.13;1.00;;;;;;;;;;10330238;28;20700;-69
2024/01/03 07:06:35;;;;;;;1.80;0.80;;;;;;;;;;10327753;28;20830;-68
2024/01/03 07:11:36;;;;;;;2.80;1.60;;;;;;;;;;10330529;28;20245;-69
2024/01/03 07:16:36;;;;;;;1.70;1.17;;;;;;;;;;10326250;28;20202;-69
2024/01/03 07:21:36;;;;;;;5.60;1.90;;;;;;;;;;10330139;28;20272;-69
2024/01/03 07:26:36;;;;;;;6.20;2.83;;;;;;;;;;10326529;28;20332;-69
2024/01/03 07:31:36;;;;;;;4.23;1.83;;;;;;;;;;10321009;28;20221;-69
2024/01/03 07:36:37;;;;;;;6.33;1.50;;;;;;;;;;10328490;28;20194;-69
2024/01/03 07:41:37;;;;;;;2.90;0.93;;;;;;;;;;10329495;28;20221;-68
2024/01/03 07:46:37;;;;;;;2.83;1.40;;;;;;;;;;10329291;28;20201;-69
2024/01/03 07:51:38;;;;;;;8.40;1.40;;;;;;;;;;10329455;28;20587;-69
2024/01/03 07:56:39;;;;;;;4.17;1.10;;;;;;;;;;10327768;28;20712;-70
2024/01/03 08:01:40;;;;;;;1.93;1.20;;;;;;;;;;10314986;28;20704;-69
2024/01/03 08:06:40;;;;;;;2.73;1.20;;;;;;;;;;10327251;28;20194;-69
2024/01/03 08:11:40;;;;;;;2.40;1.07;;;;;;;;;;10326446;28;20727;-69
2024/01/03 08:16:40;;;;;;;4.30;0.90;;;;;;;;;;10325777;28;20261;-68
2024/01/03 08:21:41;;;;;;;2.10;1.10;;;;;;;;;;10318268;28;20226;-69
2024/01/03 08:26:41;;;;;;;4.10;1.40;;;;;;;;;;10322660;28;20251;-69
2024/01/03 08:31:42;;;;;;;3.17;1.10;;;;;;;;;;10323864;28;20228;-69
2024/01/03 08:36:43;;;;;;;4.17;1.00;;;;;;;;;;10321801;28;20198;-69
2024/01/03 08:41:43;;;;;;;1.00;0.70;;;;;;;;;;10325642;28;20315;-69
2024/01/03 08:46:43;;;;;;;3.77;1.00;;;;;;;;;;10325156;28;20229;-69
2024/01/03 08:51:45;;;;;;;2.63;1.00;;;;;;;;;;10322983;28;20229;-70
2024/01/03 08:56:50;;;;;;;4.70;1.20;;;;;;;;;;10325501;28;20599;-70
2024/01/03 09:01:51;;;;;;;6.33;1.33;;;;;;;;;;10325565;28;20218;-69
2024/01/03 09:06:52;;;;;;;3.47;1.10;;;;;;;;;;10321539;28;20202;-70
2024/01/03 09:11:52;;;;;;;2.10;1.10;;;;;;;;;;10323897;28;20241;-69
2024/01/03 09:16:53;;;;;;;3.97;1.10;;;;;;;;;;10333374;28;20207;-69
2024/01/03 09:21:55;;;;;;;4.47;1.43;;;;;;;;;;10332478;28;20218;-69
2024/01/03 09:26:55;;;;;;;9.30;4.40;;;;;;;;;;10329596;28;20389;-69
2024/01/03 09:31:56;;;;;;;4.77;1.97;;;;;;;;;;10331831;28;20401;-69
2024/01/03 09:36:57;;;;;;;3.37;1.30;;;;;;;;;;10329592;28;20265;-69
2024/01/03 09:41:57;;;;;;;3.27;1.30;;;;;;;;;;10332798;28;20308;-69
2024/01/03 09:46:57;;;;;;;4.70;1.13;;;;;;;;;;10332385;28;20206;-70
2024/01/03 09:51:58;;;;;;;6.07;1.30;;;;;;;;;;10331532;28;20453;-69
2024/01/03 09:56:58;;;;;;;5.10;1.30;;;;;;;;;;10331310;28;20668;-70
2024/01/03 10:01:58;;;;;;;3.57;1.30;;;;;;;;;;10332129;28;20220;-68
2024/01/03 10:06:59;;;;;;;4.23;1.20;;;;;;;;;;10330385;28;20600;-67
2024/01/03 10:12:13;;;;;;;5.30;1.50;;;;;;;;;;10326327;28;20229;-68
2024/01/03 10:17:14;;;;;;;3.50;1.33;;;;;;;;;;10331554;28;20225;-70
2024/01/03 10:22:18;;;;;;;5.20;1.20;;;;;;;;;;10330120;28;20299;-71
2024/01/03 10:27:19;;;;;;;3.63;1.50;;;;;;;;;;10329233;28;20289;-71
2024/01/03 10:32:20;;;;;;;7.53;2.00;;;;;;;;;;10331269;28;20213;-70
2024/01/03 10:37:20;;;;;;;7.27;1.53;;;;;;;;;;10330879;28;20611;-70
2024/01/03 10:42:21;;;;;;;2.87;1.33;;;;;;;;;;10325276;28;20217;-70
2024/01/03 10:47:21;;;;;;;4.63;1.80;;;;;;;;;;10328873;28;20197;-70
2024/01/03 10:52:24;;;;;;;4.63;1.50;;;;;;;;;;10326029;28;20214;-69
2024/01/03 10:57:27;;;;;;;5.47;1.50;;;;;;;;;;10329931;28;20186;-70
2024/01/03 11:02:35;;;;;;;3.20;1.20;;;;;;;;;;10329578;28;20589;-70
2024/01/03 11:07:42;;;;;;;7.00;1.63;;;;;;;;;;10328134;28;20218;-69
2024/01/03 11:12:43;;;;;;;7.47;1.90;;;;;;;;;;10322947;28;20230;-67
2024/01/03 11:17:43;;;;;;;2.60;1.00;;;;;;;;;;10320492;28;20206;-67
2024/01/03 11:22:55;;;;;;;5.57;1.40;;;;;;;;;;10320765;28;20206;-68
2024/01/03 11:28:14;;;;;;;3.63;1.33;;;;;;;;;;10323674;28;20186;-68
2024/01/03 11:33:31;;;;;;;2.40;1.37;;;;;;;;;;10326743;28;20206;-69
2024/01/03 11:38:37;;;;;;;3.40;1.20;;;;;;;;;;10325736;28;20225;-70
2024/01/03 11:43:37;;;;;;;2.87;1.20;;;;;;;;;;10321118;28;20209;-70
2024/01/03 11:48:38;;;;;;;3.87;1.00;;;;;;;;;;10324085;28;20194;-71
2024/01/03 11:53:38;;;;;;;2.97;1.20;;;;;;;;;;10327770;28;20209;-70
2024/01/03 11:58:38;;;;;;;1.90;0.90;;;;;;;;;;10327243;28;20767;-70
2024/01/03 12:03:38;;;;;;;2.50;1.17;;;;;;;;;;10326171;28;20238;-69
2024/01/03 12:08:39;;;;;;;4.07;1.10;;;;;;;;;;10326724;28;20577;-70
2024/01/03 12:13:39;;;;;;;6.20;1.00;;;;;;;;;;10326443;28;20230;-69
2024/01/03 12:18:47;;;;;;;2.73;1.10;;;;;;;;;;10323844;28;20229;-69
2024/01/03 12:23:53;;;;;;;1.10;0.80;;;;;;;;;;10323446;28;20644;-69
2024/01/03 12:29:00;;;;;;;1.77;1.10;;;;;;;;;;10326121;28;20225;-69
2024/01/03 12:34:04;;;;;;;2.80;1.00;;;;;;;;;;10326288;28;20192;-69
2024/01/03 12:39:04;;;;;;;1.70;1.03;;;;;;;;;;10323177;28;20225;-69
2024/01/03 12:44:04;;;;;;;2.60;1.20;;;;;;;;;;10324398;28;20192;-69
2024/01/03 12:49:05;;;;;;;4.53;1.63;;;;;;;;;;10318580;28;20193;-70
2024/01/03 12:54:05;;;;;;;2.50;1.20;;;;;;;;;;10322371;28;20472;-69
2024/01/03 12:59:05;;;;;;;2.73;1.23;;;;;;;;;;10324239;28;20217;-69
2024/01/03 13:04:05;;;;;;;2.00;0.97;;;;;;;;;;10325268;28;20265;-72
2024/01/03 13:09:05;;;;;;;4.80;2.00;;;;;;;;;;10325663;28;20630;-72
2024/01/03 13:14:06;;;;;;;3.10;1.00;;;;;;;;;;10320305;28;20205;-72
2024/01/03 13:19:06;;;;;;;1.07;1.00;;;;;;;;;;10316350;28;20263;-70
2024/01/03 13:24:06;;;;;;;2.17;1.00;;;;;;;;;;10312934;28;20676;-71
2024/01/03 13:29:07;;;;;;;2.50;1.10;;;;;;;;;;10315812;28;20457;-68
2024/01/03 13:34:07;;;;;;;2.33;1.33;;;;;;;;;;10316572;28;20190;-68
2024/01/03 13:39:07;;;;;;;3.10;1.87;;;;;;;;;;10318958;28;20267;-67
2024/01/03 13:44:08;;;;;;;2.50;1.10;;;;;;;;;;10320285;28;20253;-68
2024/01/03 13:49:08;;;;;;;16.97;8.50;;;;;;;;;;10320843;28;20452;-67
2024/01/03 13:54:09;;;;;;;4.20;3.07;;;;;;;;;;10317850;28;20186;-66
2024/01/03 13:59:09;;;;;;;2.17;1.03;;;;;;;;;;10321513;28;20779;-65
2024/01/03 14:04:09;;;;;;;2.60;1.40;;;;;;;;;;10331837;28;20197;-66
2024/01/03 14:09:10;;;;;;;2.67;1.67;;;;;;;;;;10331661;28;20233;-68
2024/01/03 14:14:10;;;;;;;4.20;2.03;;;;;;;;;;10330123;28;20194;-65
2024/01/03 14:19:10;;;;;;;1.97;1.30;;;;;;;;;;10331291;28;20249;-66
2024/01/03 14:24:11;;;;;;;3.70;1.37;;;;;;;;;;10330995;28;20202;-66
2024/01/03 14:29:11;;;;;;;1.53;1.40;;;;;;;;;;10324114;28;20700;-66
2024/01/03 14:34:11;;;;;;;3.13;1.40;;;;;;;;;;10330788;28;20202;-67
2024/01/03 14:39:11;;;;;;;4.90;1.40;;;;;;;;;;10329627;28;20225;-68
2024/01/03 14:44:13;;;;;;;1.43;1.13;;;;;;;;;;10330582;28;20236;-68
2024/01/03 14:49:13;;;;;;;1.60;1.33;;;;;;;;;;10329161;28;20237;-69
2024/01/03 14:54:14;;;;;;;2.50;1.40;;;;;;;;;;10330708;28;20603;-68
2024/01/03 14:59:15;;;;;;;5.70;2.50;;;;;;;;;;10324511;28;20304;-69
2024/01/03 15:04:15;;;;;;;3.10;1.43;;;;;;;;;;10329601;28;20186;-68
2024/01/03 15:09:16;;;;;;;2.23;1.30;;;;;;;;;;10328270;28;20233;-68
2024/01/03 15:14:16;;;;;;;9.37;4.43;;;;;;;;;;10328887;28;20672;-68
2024/01/03 15:19:16;;;;;;;2.60;1.40;;;;;;;;;;10328791;28;20306;-68
2024/01/03 15:24:16;;;;;;;2.97;1.20;;;;;;;;;;10328514;28;20456;-66
2024/01/03 15:29:16;;;;;;;3.63;1.47;;;;;;;;;;10326460;28;20337;-68
2024/01/03 15:34:17;;;;;;;6.80;2.80;;;;;;;;;;10324435;28;20236;-68
2024/01/03 15:39:17;;;;;;;6.20;2.53;;;;;;;;;;10328479;28;20721;-68
2024/01/03 15:44:17;;;;;;;4.27;1.43;;;;;;;;;;10328067;28;20201;-67
2024/01/03 15:49:18;;;;;;;5.40;1.50;;;;;;;;;;10326873;28;20461;-66
2024/01/03 15:54:18;;;;;;;2.57;1.50;;;;;;;;;;10327724;28;20277;-69
2024/01/03 15:59:18;;;;;;;6.20;1.47;;;;;;;;;;10327334;28;20226;-68
2024/01/03 16:04:19;;;;;;;4.57;1.70;;;;;;;;;;10322524;28;20931;-70
2024/01/03 16:09:21;;;;;;;4.10;1.40;;;;;;;;;;10326937;28;20607;-68
2024/01/03 16:14:22;;;;;;;4.93;2.37;;;;;;;;;;10327101;28;20198;-69
2024/01/03 16:19:25;;;;;;;4.60;1.70;;;;;;;;;;10326653;28;21026;-69
2024/01/03 16:24:25;;;;;;;4.00;1.90;;;;;;;;;;10324789;28;20602;-69
2024/01/03 16:29:26;;;;;;;9.13;2.53;;;;;;;;;;10326780;28;20217;-69
2024/01/03 16:34:27;;;;;;;5.20;2.47;;;;;;;;;;10322694;28;20198;-69
2024/01/03 16:39:27;;;;;;;7.33;3.53;;;;;;;;;;10326412;28;20649;-69
2024/01/03 16:44:28;;;;;;;7.17;2.47;;;;;;;;;;10324897;28;20277;-69
2024/01/03 16:49:28;;;;;;;5.50;2.17;;;;;;;;;;10326288;28;20232;-70
2024/01/03 16:54:29;;;;;;;7.33;2.30;;;;;;;;;;10325995;28;20288;-69
2024/01/03 16:59:29;;;;;;;11.80;6.00;;;;;;;;;;10325939;28;20226;-69
2024/01/03 17:04:30;;;;;;;5.30;1.40;;;;;;;;;;10323692;28;21006;-69
2024/01/03 17:09:31;;;;;;;4.67;2.07;;;;;;;;;;10325982;28;20582;-70
2024/01/03 17:14:31;;;;;;;6.40;1.80;;;;;;;;;;10327120;28;20285;-71
2024/01/03 17:19:35;;;;;;;9.87;5.03;;;;;;;;;;10323313;28;20309;-70
2024/01/03 17:24:35;;;;;;;5.93;3.17;;;;;;;;;;10326371;28;20248;-71
2024/01/03 17:29:35;;;;;;;2.87;1.20;;;;;;;;;;10345373;22;20249;-69
2024/01/03 17:34:35;;;;;;;3.77;1.57;;;;;;;;;;10325915;28;20194;-70
2024/01/03 17:39:35;;;;;;;5.30;1.40;;;;;;;;;;10333986;28;20695;-69
2024/01/03 17:44:36;;;;;;;1.80;0.90;;;;;;;;;;10326619;28;20199;-69
2024/01/03 17:49:36;;;;;;;3.17;1.60;;;;;;;;;;10326203;28;20224;-69
2024/01/03 17:54:36;;;;;;;4.77;1.67;;;;;;;;;;10326231;28;20210;-68
2024/01/03 17:59:36;;;;;;;1.90;0.90;;;;;;;;;;10331825;28;20221;-68
2024/01/03 18:04:36;;;;;;;3.40;1.10;;;;;;;;;;10333083;28;20190;-68
2024/01/03 18:09:36;;;;;;;1.33;1.00;;;;;;;;;;10329758;28;20214;-68
2024/01/03 18:14:37;;;;;;;3.53;1.10;;;;;;;;;;10316418;28;20575;-68
2024/01/03 18:19:37;;;;;;;1.10;1.00;;;;;;;;;;10321298;28;20272;-68
2024/01/03 18:24:44;;;;;;;2.93;1.10;;;;;;;;;;10321157;28;20594;-67
2024/01/03 18:29:44;;;;;;;4.07;1.50;;;;;;;;;;10318751;28;20272;-67
2024/01/03 18:34:44;;;;;;;8.70;3.83;;;;;;;;;;10323280;28;20301;-68
2024/01/03 18:39:44;;;;;;;5.50;3.00;;;;;;;;;;10317952;28;20272;-68
2024/01/03 18:44:44;;;;;;;4.63;2.70;;;;;;;;;;10322816;28;20198;-67
2024/01/03 18:49:44;;;;;;;5.30;1.80;;;;;;;;;;10326338;28;20306;-68
2024/01/03 18:54:45;;;;;;;3.70;1.60;;;;;;;;;;10328018;28;20197;-68
2024/01/03 18:59:45;;;;;;;9.37;3.67;;;;;;;;;;10317770;28;20217;-67
2024/01/03 19:04:45;;;;;;;2.43;1.67;;;;;;;;;;10317026;28;20240;-68
2024/01/03 19:09:46;;;;;;;3.77;2.27;;;;;;;;;;10324020;28;20915;-67
2024/01/03 19:14:46;;;;;;;8.53;3.27;;;;;;;;;;10326287;28;20201;-67
2024/01/03 19:19:46;;;;;;;5.50;1.80;;;;;;;;;;10328505;28;20221;-67
2024/01/03 19:24:47;;;;;;;5.40;1.73;;;;;;;;;;10330296;28;20178;-68
2024/01/03 19:29:47;;;;;;;2.30;1.30;;;;;;;;;;10330316;28;20246;-67
2024/01/03 19:34:47;;;;;;;3.20;1.80;;;;;;;;;;10330720;28;20590;-68
2024/01/03 19:39:47;;;;;;;5.10;1.20;;;;;;;;;;10329498;28;20293;-67
2024/01/03 19:44:48;;;;;;;2.50;1.70;;;;;;;;;;10328317;28;20236;-66
2024/01/03 19:49:48;;;;;;;1.33;1.17;;;;;;;;;;10329332;28;20225;-67
2024/01/03 19:54:49;;;;;;;2.17;1.20;;;;;;;;;;10323389;28;20194;-68
2024/01/03 19:59:50;;;;;;;1.87;0.90;;;;;;;;;;10321409;28;20375;-68
2024/01/03 20:04:51;;;;;;;1.10;0.87;;;;;;;;;;10321995;28;20194;-68
2024/01/03 20:09:51;;;;;;;5.07;1.67;;;;;;;;;;10324672;28;20692;-68
2024/01/03 20:14:51;;;;;;;0.70;0.70;;;;;;;;;;10328089;28;20260;-68
2024/01/03 20:19:51;;;;;;;2.00;1.13;;;;;;;;;;10328110;28;20223;-68
2024/01/03 20:24:52;;;;;;;0.80;0.80;;;;;;;;;;10326441;28;20661;-68
2024/01/03 20:29:52;;;;;;;2.87;2.60;;;;;;;;;;10320759;28;20290;-68
2024/01/03 20:34:52;;;;;;;1.40;1.30;;;;;;;;;;10316200;28;20214;-68
2024/01/03 20:39:52;;;;;;;2.37;1.30;;;;;;;;;;10320711;28;20597;-68
2024/01/03 20:44:52;;;;;;;1.77;1.23;;;;;;;;;;10327706;28;20771;-67
2024/01/03 20:49:53;;;;;;;1.63;0.90;;;;;;;;;;10327002;28;20217;-69
2024/01/03 20:54:53;;;;;;;0.90;0.90;;;;;;;;;;10328450;28;20198;-68
2024/01/03 20:59:53;;;;;;;0.87;0.83;;;;;;;;;;10325280;28;20233;-68
2024/01/03 21:04:53;;;;;;;1.67;1.00;;;;;;;;;;10327146;28;20206;-67
2024/01/03 21:09:53;;;;;;;0.70;0.70;;;;;;;;;;10329802;28;20206;-67
2024/01/03 21:14:55;;;;;;;2.40;1.03;;;;;;;;;;10335281;28;20186;-67
2024/01/03 21:19:55;;;;;;;1.50;1.30;;;;;;;;;;10333830;28;20214;-67
2024/01/03 21:24:56;;;;;;;2.13;1.10;;;;;;;;;;10334911;28;20280;-68
2024/01/03 21:29:57;;;;;;;2.87;1.10;;;;;;;;;;10334782;28;20700;-67
2024/01/03 21:34:57;;;;;;;2.10;0.83;;;;;;;;;;10334649;28;20202;-67
2024/01/03 21:39:57;;;;;;;1.40;0.80;;;;;;;;;;10332904;28;20218;-67
2024/01/03 21:44:59;;;;;;;2.30;0.93;;;;;;;;;;10334414;28;20986;-67
2024/01/03 21:49:59;;;;;;;3.13;1.30;;;;;;;;;;10334012;28;20634;-67
2024/01/03 21:55:00;;;;;;;0.70;0.70;;;;;;;;;;10334043;28;20256;-67
2024/01/03 22:00:00;;;;;;;3.67;0.70;;;;;;;;;;10332542;28;20268;-69
2024/01/03 22:05:02;;;;;;;1.37;0.70;;;;;;;;;;10333451;28;20190;-70
2024/01/03 22:10:03;;;;;;;0.70;0.70;;;;;;;;;;10333494;28;20245;-70
2024/01/03 22:15:03;;;;;;;1.17;0.80;;;;;;;;;;10332069;28;20222;-70
2024/01/03 22:20:04;;;;;;;0.70;0.70;;;;;;;;;;10332086;28;20751;-70
2024/01/03 22:25:04;;;;;;;0.70;0.70;;;;;;;;;;10332911;28;20182;-71
2024/01/03 22:30:05;;;;;;;0.67;0.67;;;;;;;;;;10332489;28;20700;-69
2024/01/03 22:35:05;;;;;;;4.00;0.70;;;;;;;;;;10331658;28;20208;-71
2024/01/03 22:40:06;;;;;;;0.88;0.63;;;;;;;;;;10332327;28;20225;-70
2024/01/03 22:45:07;;;;;;;0.70;0.70;;;;;;;;;;10332217;28;20197;-70
2024/01/03 22:50:08;;;;;;;1.27;0.90;;;;;;;;;;10332048;28;20214;-71
2024/01/03 22:55:08;;;;;;;0.60;0.60;;;;;;;;;;10330713;28;20777;-70
2024/01/03 23:00:12;;;;;;;0.60;0.60;;;;;;;;;;10331795;28;20218;-70
2024/01/03 23:05:13;;;;;;;0.70;0.70;;;;;;;;;;10328909;28;20237;-70
2024/01/03 23:10:13;;;;;;;0.60;0.60;;;;;;;;;;10331106;28;20811;-70
2024/01/03 23:15:13;;;;;;;0.80;0.60;;;;;;;;;;10329511;28;20193;-71
2024/01/03 23:20:13;;;;;;;0.60;0.60;;;;;;;;;;10330354;28;20213;-70
2024/01/03 23:25:14;;;;;;;0.60;0.60;;;;;;;;;;10330958;28;20194;-70
2024/01/03 23:30:14;;;;;;;1.37;0.60;;;;;;;;;;10330024;28;20367;-73
2024/01/03 23:35:15;;;;;;;0.60;0.60;;;;;;;;;;10328908;28;20455;-71
2024/01/03 23:40:15;;;;;;;2.10;0.70;;;;;;;;;;10329820;28;20480;-72
2024/01/03 23:45:15;;;;;;;1.20;0.80;;;;;;;;;;10330025;28;20188;-71
2024/01/03 23:50:15;;;;;;;0.70;0.70;;;;;;;;;;10328603;28;20206;-72
2024/01/03 23:55:16;;;;;;;0.60;0.60;;;;;;;;;;10329358;28;20197;-72
